createdAt,value
2023-05-24T00:00:19.123Z,100.00
2023-05-24T00:02:46.232Z,100.00
2023-05-24T00:05:14.778Z,100.00
2023-05-24T00:07:41.986Z,100.00
2023-05-24T00:10:10.069Z,100.00
2023-05-24T00:12:37.164Z,100.00
2023-05-24T00:15:04.701Z,100.00
2023-05-24T00:17:32.148Z,100.00
2023-05-24T00:19:59.700Z,100.00
2023-05-24T00:22:26.812Z,97.30
2023-05-24T00:24:53.893Z,99.23
2023-05-24T00:27:20.933Z,99.59
2023-05-24T00:29:48.010Z,100.00
2023-05-24T00:32:15.191Z,100.00
2023-05-24T00:34:42.284Z,100.00
2023-05-24T00:37:12.900Z,100.00
2023-05-24T00:39:40.012Z,100.00
2023-05-24T00:42:07.490Z,100.00
2023-05-24T00:44:34.607Z,100.00
2023-05-24T00:47:01.720Z,100.00
2023-05-24T00:49:29.253Z,100.00
2023-05-24T00:51:56.478Z,100.00
2023-05-24T00:54:26.154Z,100.00
2023-05-24T00:56:54.699Z,100.00
2023-05-24T00:59:22.652Z,100.00
2023-05-24T01:01:50.465Z,100.00
2023-05-24T01:04:17.743Z,100.00
2023-05-24T01:07:21.856Z,100.00
2023-05-24T01:10:01.017Z,100.00
2023-05-24T01:12:56.316Z,100.00
2023-05-24T01:15:35.812Z,100.00
2023-05-24T01:18:15.533Z,100.00
2023-05-24T01:20:44.064Z,100.00
2023-05-24T01:23:41.890Z,100.00
2023-05-24T01:26:18.115Z,100.00
2023-05-24T01:28:47.359Z,100.00
2023-05-24T01:31:17.006Z,100.00
2023-05-24T01:33:44.805Z,100.00
2023-05-24T01:36:11.908Z,100.00
2023-05-24T01:38:41.495Z,100.00
2023-05-24T01:41:26.673Z,100.00
2023-05-24T01:44:07.472Z,100.00
2023-05-24T01:46:38.854Z,100.00
2023-05-24T01:49:22.297Z,100.00
2023-05-24T01:52:07.299Z,100.00
2023-05-24T01:54:39.098Z,100.00
2023-05-24T01:57:09.056Z,100.00
2023-05-24T01:59:39.740Z,100.00
2023-05-24T02:02:06.841Z,100.00
2023-05-24T02:04:34.007Z,100.00
2023-05-24T02:07:01.050Z,100.00
2023-05-24T02:09:28.088Z,100.00
2023-05-24T02:11:55.260Z,100.00
2023-05-24T02:14:24.381Z,100.00
2023-05-24T02:16:51.509Z,100.00
2023-05-24T02:19:19.610Z,100.00
2023-05-24T02:21:46.793Z,100.00
2023-05-24T02:24:14.948Z,100.00
2023-05-24T02:26:42.209Z,100.00
2023-05-24T02:29:09.386Z,100.00
2023-05-24T02:31:36.975Z,100.00
2023-05-24T02:34:04.198Z,100.00
2023-05-24T02:36:32.593Z,100.00
2023-05-24T02:38:59.684Z,100.00
2023-05-24T02:41:26.857Z,100.00
2023-05-24T02:43:53.976Z,100.00
2023-05-24T02:46:21.146Z,100.00
2023-05-24T02:48:49.600Z,100.00
2023-05-24T02:51:17.091Z,100.00
2023-05-24T02:53:45.298Z,100.00
2023-05-24T02:56:13.934Z,100.00
2023-05-24T02:58:41.944Z,100.00
2023-05-24T03:01:09.073Z,100.00
2023-05-24T03:03:36.819Z,100.00
2023-05-24T03:06:09.572Z,100.00
2023-05-24T03:08:37.408Z,100.00
2023-05-24T03:11:05.589Z,100.00
2023-05-24T03:13:34.486Z,100.00
2023-05-24T03:16:02.087Z,100.00
2023-05-24T03:18:30.161Z,100.00
2023-05-24T03:20:57.313Z,100.00
2023-05-24T03:23:24.398Z,100.00
2023-05-24T03:25:51.483Z,100.00
2023-05-24T03:28:19.016Z,100.00
2023-05-24T03:30:46.493Z,100.00
2023-05-24T03:33:14.778Z,100.00
2023-05-24T03:35:42.012Z,100.00
2023-05-24T03:38:12.847Z,100.00
2023-05-24T03:40:43.927Z,100.00
2023-05-24T03:43:18.177Z,100.00
2023-05-24T03:45:52.476Z,100.00
2023-05-24T03:48:22.690Z,100.00
2023-05-24T03:50:51.626Z,100.00
2023-05-24T03:53:19.568Z,100.00
2023-05-24T03:55:48.765Z,100.00
2023-05-24T03:58:15.829Z,100.00
2023-05-24T04:00:43.154Z,100.00
2023-05-24T04:03:12.115Z,100.00
2023-05-24T04:05:39.941Z,100.00
2023-05-24T04:08:07.633Z,100.00
2023-05-24T04:10:38.016Z,100.00
2023-05-24T04:13:05.167Z,100.00
2023-05-24T04:15:37.853Z,100.00
2023-05-24T04:18:05.686Z,100.00
2023-05-24T04:20:35.052Z,100.00
2023-05-24T04:23:02.173Z,100.00
2023-05-24T04:25:30.376Z,100.00
2023-05-24T04:27:57.438Z,100.00
2023-05-24T04:30:25.103Z,100.00
2023-05-24T04:32:52.697Z,100.00
2023-05-24T04:35:20.339Z,100.00
2023-05-24T04:37:50.086Z,100.00
2023-05-24T04:40:20.795Z,100.00
2023-05-24T04:42:47.870Z,100.00
2023-05-24T04:45:15.069Z,100.00
2023-05-24T04:47:42.430Z,100.00
2023-05-24T04:50:09.934Z,100.00
2023-05-24T04:52:36.977Z,100.00
2023-05-24T04:55:04.368Z,100.00
2023-05-24T04:57:31.521Z,100.00
2023-05-24T04:59:58.941Z,100.00
2023-05-24T05:02:27.096Z,100.00
2023-05-24T05:04:54.450Z,100.00
2023-05-24T05:07:21.500Z,100.00
2023-05-24T05:09:48.750Z,100.00
2023-05-24T05:12:16.027Z,100.00
2023-05-24T05:14:43.280Z,100.00
2023-05-24T05:17:10.412Z,100.00
2023-05-24T05:19:37.494Z,100.00
2023-05-24T05:22:04.682Z,100.00
2023-05-24T05:24:31.725Z,100.00
2023-05-24T05:26:58.846Z,100.00
2023-05-24T05:29:25.918Z,100.00
2023-05-24T05:31:53.124Z,100.00
2023-05-24T05:34:21.193Z,100.00
2023-05-24T05:36:48.267Z,100.00
2023-05-24T05:39:15.591Z,100.00
2023-05-24T05:41:45.968Z,100.00
2023-05-24T05:44:14.973Z,100.00
2023-05-24T05:46:43.970Z,99.55
2023-05-24T05:49:11.665Z,100.00
2023-05-24T05:51:39.122Z,96.52
2023-05-24T05:54:06.598Z,99.38
2023-05-24T05:56:33.692Z,100.00
2023-05-24T05:59:00.962Z,99.63
2023-05-24T06:01:27.992Z,100.00
2023-05-24T06:03:55.263Z,100.00
2023-05-24T06:06:22.479Z,100.00
2023-05-24T06:08:49.629Z,97.29
2023-05-24T06:11:16.868Z,93.83
2023-05-24T06:13:44.031Z,95.52
2023-05-24T06:16:11.248Z,93.50
2023-05-24T06:18:38.535Z,93.90
2023-05-24T06:21:06.646Z,92.93
2023-05-24T06:23:33.673Z,90.83
2023-05-24T06:26:03.832Z,86.07
2023-05-24T06:28:30.893Z,87.58
2023-05-24T06:30:57.948Z,86.35
2023-05-24T06:33:25.007Z,87.87
2023-05-24T06:35:52.044Z,88.22
2023-05-24T06:38:19.086Z,86.25
2023-05-24T06:40:46.211Z,85.83
2023-05-24T06:43:13.666Z,83.38
2023-05-24T06:45:41.678Z,85.23
2023-05-24T06:48:11.242Z,86.21
2023-05-24T06:50:40.344Z,84.61
2023-05-24T06:53:09.841Z,82.01
2023-05-24T06:55:37.486Z,81.83
2023-05-24T06:58:05.477Z,83.53
2023-05-24T07:00:32.560Z,83.38
2023-05-24T07:02:59.651Z,81.30
2023-05-24T07:05:26.740Z,81.03
2023-05-24T07:07:53.758Z,78.52
2023-05-24T07:10:21.014Z,80.16
2023-05-24T07:12:48.063Z,77.91
2023-05-24T07:15:15.230Z,77.39
2023-05-24T07:17:42.318Z,77.76
2023-05-24T07:20:10.658Z,76.85
2023-05-24T07:22:37.752Z,78.71
2023-05-24T07:25:05.504Z,80.32
2023-05-24T07:27:32.562Z,76.37
2023-05-24T07:29:59.705Z,73.06
2023-05-24T07:32:26.880Z,70.31
2023-05-24T07:34:53.987Z,70.18
2023-05-24T07:37:24.006Z,70.09
2023-05-24T07:39:52.093Z,67.53
2023-05-24T07:42:19.364Z,67.03
2023-05-24T07:44:46.855Z,67.10
2023-05-24T07:47:13.920Z,68.36
2023-05-24T07:49:41.015Z,67.75
2023-05-24T07:52:08.474Z,65.08
2023-05-24T07:54:35.518Z,66.48
2023-05-24T07:57:02.828Z,64.66
2023-05-24T07:59:30.068Z,64.94
2023-05-24T08:02:01.678Z,63.94
2023-05-24T08:04:29.088Z,64.57
2023-05-24T08:06:57.831Z,69.60
2023-05-24T08:09:25.020Z,67.64
2023-05-24T08:11:52.143Z,64.96
2023-05-24T08:14:19.284Z,64.84
2023-05-24T08:16:46.491Z,65.78
2023-05-24T08:19:14.071Z,66.78
2023-05-24T08:21:42.384Z,66.11
2023-05-24T08:24:09.733Z,65.02
2023-05-24T08:26:36.919Z,66.61
2023-05-24T08:29:05.027Z,64.97
2023-05-24T08:31:33.386Z,63.46
2023-05-24T08:34:01.780Z,63.45
2023-05-24T08:36:28.920Z,63.69
2023-05-24T08:38:56.151Z,63.16
2023-05-24T08:41:24.040Z,64.41
2023-05-24T08:43:52.226Z,64.47
2023-05-24T08:46:19.672Z,65.18
2023-05-24T08:48:48.126Z,64.94
2023-05-24T08:51:16.593Z,64.61
2023-05-24T08:53:49.594Z,65.06
2023-05-24T08:56:18.376Z,62.42
2023-05-24T08:58:47.026Z,60.85
2023-05-24T09:01:16.537Z,59.99
2023-05-24T09:03:46.801Z,57.73
2023-05-24T09:06:17.488Z,58.26
2023-05-24T09:08:45.456Z,58.35
2023-05-24T09:11:15.212Z,55.62
2023-05-24T09:13:45.603Z,59.13
2023-05-24T09:16:13.106Z,58.12
2023-05-24T09:18:42.604Z,59.05
2023-05-24T09:21:11.775Z,58.83
2023-05-24T09:23:40.674Z,58.75
2023-05-24T09:26:09.668Z,57.37
2023-05-24T09:28:38.012Z,60.10
2023-05-24T09:31:07.720Z,60.25
2023-05-24T09:33:35.359Z,58.29
2023-05-24T09:36:04.725Z,59.28
2023-05-24T09:38:31.978Z,57.42
2023-05-24T09:41:03.090Z,55.10
2023-05-24T09:43:34.689Z,53.40
2023-05-24T09:46:05.612Z,55.12
2023-05-24T09:48:32.800Z,53.89
2023-05-24T09:51:05.110Z,53.00
2023-05-24T09:53:36.577Z,52.64
2023-05-24T09:56:05.374Z,53.43
2023-05-24T09:58:35.731Z,53.01
2023-05-24T10:01:08.024Z,52.12
2023-05-24T10:03:37.335Z,51.53
2023-05-24T10:06:08.101Z,51.74
2023-05-24T10:08:36.554Z,49.94
2023-05-24T10:11:06.493Z,50.56
2023-05-24T10:13:35.786Z,49.22
2023-05-24T10:16:03.826Z,49.57
2023-05-24T10:18:31.273Z,50.40
2023-05-24T10:20:59.511Z,50.27
2023-05-24T10:23:30.360Z,49.92
2023-05-24T10:26:06.715Z,50.80
2023-05-24T10:28:54.898Z,49.16
2023-05-24T10:31:37.155Z,50.00
2023-05-24T10:34:08.675Z,49.98
2023-05-24T10:36:39.908Z,49.47
2023-05-24T10:39:11.167Z,49.60
2023-05-24T10:41:42.041Z,49.40
2023-05-24T10:44:13.452Z,48.37
2023-05-24T10:47:09.887Z,49.85
2023-05-24T10:49:39.638Z,48.99
2023-05-24T10:52:10.712Z,49.11
2023-05-24T10:54:39.932Z,49.95
2023-05-24T10:57:10.097Z,51.11
2023-05-24T10:59:39.205Z,51.87
2023-05-24T11:02:16.269Z,52.83
2023-05-24T11:04:46.796Z,52.33
2023-05-24T11:07:15.838Z,53.55
2023-05-24T11:09:46.503Z,53.24
2023-05-24T11:12:17.298Z,52.97
2023-05-24T11:14:53.794Z,50.99
2023-05-24T11:17:22.826Z,51.34
2023-05-24T11:19:52.990Z,50.58
2023-05-24T11:22:25.272Z,51.54
2023-05-24T11:24:53.586Z,51.55
2023-05-24T11:27:20.908Z,49.77
2023-05-24T11:29:48.790Z,51.99
2023-05-24T11:32:18.146Z,47.60
2023-05-24T11:34:46.927Z,47.63
2023-05-24T11:37:17.100Z,49.11
2023-05-24T11:39:51.209Z,49.69
2023-05-24T11:42:18.437Z,48.95
2023-05-24T11:44:48.377Z,49.55
2023-05-24T11:47:15.715Z,49.85
2023-05-24T11:49:42.810Z,51.70
2023-05-24T11:52:09.982Z,53.61
2023-05-24T11:54:38.774Z,53.86
2023-05-24T11:57:06.210Z,54.07
2023-05-24T11:59:35.739Z,55.98
2023-05-24T12:02:05.437Z,57.29
2023-05-24T12:04:34.619Z,57.21
2023-05-24T12:07:03.082Z,58.04
2023-05-24T12:09:30.236Z,58.26
2023-05-24T12:12:01.931Z,57.55
2023-05-24T12:14:33.654Z,59.17
2023-05-24T12:17:01.239Z,60.51
2023-05-24T12:19:36.466Z,58.12
2023-05-24T12:22:11.482Z,56.90
2023-05-24T12:24:38.603Z,54.72
2023-05-24T12:27:07.562Z,54.64
2023-05-24T12:29:37.693Z,54.82
2023-05-24T12:32:05.369Z,56.19
2023-05-24T12:34:32.580Z,57.38
2023-05-24T12:37:00.054Z,56.61
2023-05-24T12:39:33.903Z,57.75
2023-05-24T12:42:02.293Z,56.83
2023-05-24T12:44:36.392Z,57.43
2023-05-24T12:47:08.332Z,57.39
2023-05-24T12:49:35.876Z,57.00
2023-05-24T12:52:03.628Z,55.37
2023-05-24T12:54:31.112Z,55.68
2023-05-24T12:57:03.252Z,54.65
2023-05-24T12:59:30.830Z,53.89
2023-05-24T13:01:58.233Z,54.40
2023-05-24T13:04:30.497Z,53.86
2023-05-24T13:06:57.675Z,53.12
2023-05-24T13:09:26.113Z,51.35
2023-05-24T13:11:55.088Z,51.39
2023-05-24T13:14:22.333Z,51.00
2023-05-24T13:16:49.620Z,51.03
2023-05-24T13:19:17.260Z,51.08
2023-05-24T13:21:44.871Z,51.12
2023-05-24T13:24:15.627Z,50.85
2023-05-24T13:26:43.056Z,51.96
2023-05-24T13:31:41.080Z,55.94
2023-05-24T13:34:11.827Z,57.08
2023-05-24T13:36:39.162Z,58.52
2023-05-24T13:41:40.840Z,59.17
2023-05-24T13:44:08.632Z,56.93
2023-05-24T13:46:36.369Z,56.78
2023-05-24T13:49:04.343Z,57.04
2023-05-24T13:51:31.584Z,54.65
2023-05-24T13:53:59.549Z,55.71
2023-05-24T13:56:32.442Z,56.07
2023-05-24T13:59:01.099Z,54.70
2023-05-24T14:01:28.619Z,54.75
2023-05-24T14:03:55.710Z,53.52
2023-05-24T14:06:22.908Z,52.54
2023-05-24T14:08:49.970Z,56.08
2023-05-24T14:11:17.134Z,53.37
2023-05-24T14:16:14.727Z,53.36
2023-05-24T14:18:41.922Z,53.06
2023-05-24T14:21:09.259Z,54.88
2023-05-24T14:23:36.379Z,54.31
2023-05-24T14:28:44.571Z,53.87
2023-05-24T14:31:11.854Z,52.54
2023-05-24T14:33:38.993Z,54.50
2023-05-24T14:36:06.447Z,54.39
2023-05-24T14:38:33.726Z,55.24
2023-05-24T14:41:01.582Z,53.44
2023-05-24T14:43:28.805Z,53.13
2023-05-24T14:45:56.414Z,52.45
2023-05-24T14:48:23.552Z,53.99
2023-05-24T14:50:50.694Z,55.93
2023-05-24T14:53:17.821Z,54.38
2023-05-24T14:55:45.224Z,54.48
2023-05-24T14:58:12.574Z,54.73
2023-05-24T15:00:41.318Z,55.80
2023-05-24T15:03:09.002Z,55.79
2023-05-24T15:05:36.565Z,54.61
2023-05-24T15:08:05.654Z,52.33
2023-05-24T15:10:33.284Z,54.05
2023-05-24T15:13:01.286Z,57.14
2023-05-24T15:15:28.765Z,56.80
2023-05-24T15:17:57.553Z,55.67
2023-05-24T15:20:26.053Z,57.39
2023-05-24T15:23:10.599Z,56.63
2023-05-24T15:25:38.032Z,56.68
2023-05-24T15:28:05.457Z,56.79
2023-05-24T15:30:32.590Z,57.61
2023-05-24T15:32:59.632Z,57.96
2023-05-24T15:35:29.666Z,59.03
2023-05-24T15:37:56.953Z,59.99
2023-05-24T15:40:24.628Z,60.60
2023-05-24T15:42:52.767Z,63.16
2023-05-24T15:45:20.014Z,63.88
2023-05-24T15:47:47.290Z,63.08
2023-05-24T15:50:14.439Z,65.40
2023-05-24T15:52:41.561Z,65.84
2023-05-24T15:55:09.132Z,64.77
2023-05-24T15:57:36.191Z,65.82
2023-05-24T16:00:03.911Z,65.28
2023-05-24T16:02:39.241Z,68.74
2023-05-24T16:05:06.957Z,69.10
2023-05-24T16:07:34.231Z,69.28
2023-05-24T16:10:01.336Z,69.35
2023-05-24T16:12:30.159Z,71.25
2023-05-24T16:14:59.830Z,70.22
2023-05-24T16:17:27.065Z,72.42
2023-05-24T16:19:54.367Z,73.97
2023-05-24T16:22:21.646Z,74.31
2023-05-24T16:24:48.799Z,72.31
2023-05-24T16:27:16.031Z,72.79
2023-05-24T16:29:45.458Z,72.90
2023-05-24T16:32:14.039Z,72.67
2023-05-24T16:34:55.560Z,72.63
2023-05-24T16:37:23.690Z,72.15
2023-05-24T16:39:51.003Z,72.66
2023-05-24T16:42:18.058Z,73.52
2023-05-24T16:44:45.263Z,74.15
2023-05-24T16:47:12.759Z,76.65
2023-05-24T16:49:40.086Z,77.17
2023-05-24T16:52:07.411Z,78.41
2023-05-24T16:54:34.559Z,78.17
2023-05-24T16:57:01.747Z,79.40
2023-05-24T16:59:28.808Z,80.19
2023-05-24T17:01:55.963Z,80.28
2023-05-24T17:04:23.116Z,80.88
2023-05-24T17:06:50.271Z,79.95
2023-05-24T17:09:17.626Z,80.81
2023-05-24T17:11:44.821Z,79.56
2023-05-24T17:14:11.875Z,79.23
2023-05-24T17:16:39.497Z,79.97
2023-05-24T17:19:06.653Z,80.05
2023-05-24T17:21:33.722Z,80.29
2023-05-24T17:24:00.911Z,82.01
2023-05-24T17:26:28.060Z,82.51
2023-05-24T17:28:55.094Z,83.52
2023-05-24T17:31:22.375Z,83.64
2023-05-24T17:33:49.527Z,81.26
2023-05-24T17:36:16.725Z,81.21
2023-05-24T17:38:43.851Z,80.80
2023-05-24T17:41:10.941Z,81.04
2023-05-24T17:43:40.037Z,81.11
2023-05-24T17:46:07.679Z,79.54
2023-05-24T17:48:39.589Z,80.17
2023-05-24T17:51:08.222Z,79.99
2023-05-24T17:53:37.084Z,79.90
2023-05-24T17:56:05.300Z,80.28
2023-05-24T17:58:35.704Z,82.26
2023-05-24T18:01:05.299Z,83.26
2023-05-24T18:03:33.746Z,83.03
2023-05-24T18:06:01.309Z,81.45
2023-05-24T18:08:28.367Z,82.35
2023-05-24T18:10:55.697Z,83.29
2023-05-24T18:13:22.767Z,83.63
2023-05-24T18:15:50.185Z,83.79
2023-05-24T18:18:17.652Z,82.79
2023-05-24T18:20:44.761Z,82.59
2023-05-24T18:23:11.949Z,84.44
2023-05-24T18:25:39.128Z,83.94
2023-05-24T18:28:07.271Z,83.77
2023-05-24T18:30:34.376Z,87.12
2023-05-24T18:33:07.217Z,84.23
2023-05-24T18:35:35.686Z,86.16
2023-05-24T18:38:03.700Z,83.36
2023-05-24T18:40:31.052Z,84.41
2023-05-24T18:42:58.089Z,82.23
2023-05-24T18:45:25.283Z,81.86
2023-05-24T18:47:54.019Z,81.35
2023-05-24T18:50:23.190Z,81.65
2023-05-24T18:52:50.805Z,82.29
2023-05-24T18:55:17.940Z,82.81
2023-05-24T18:57:45.103Z,84.17
2023-05-24T19:00:12.886Z,84.45
2023-05-24T19:02:40.446Z,86.26
2023-05-24T19:05:08.618Z,85.76
2023-05-24T19:07:36.138Z,87.11
2023-05-24T19:10:03.966Z,87.73
2023-05-24T19:12:31.264Z,87.88
2023-05-24T19:14:58.487Z,88.68
2023-05-24T19:17:25.707Z,89.57
2023-05-24T19:19:52.876Z,90.80
2023-05-24T19:22:20.046Z,92.52
2023-05-24T19:24:47.220Z,92.26
2023-05-24T19:27:14.604Z,93.50
2023-05-24T19:29:41.725Z,94.02
2023-05-24T19:32:09.003Z,95.02
2023-05-24T19:34:37.225Z,93.21
2023-05-24T19:37:04.642Z,93.71
2023-05-24T19:39:31.718Z,95.42
2023-05-24T19:41:58.812Z,95.75
2023-05-24T19:44:26.031Z,96.12
2023-05-24T19:46:53.125Z,98.07
2023-05-24T19:49:20.156Z,97.91
2023-05-24T19:51:47.220Z,97.06
2023-05-24T19:54:14.802Z,99.89
2023-05-24T19:56:41.932Z,100.00
2023-05-24T19:59:09.018Z,100.00
2023-05-24T20:01:36.184Z,100.00
2023-05-24T20:04:03.861Z,100.00
2023-05-24T20:06:31.442Z,100.00
2023-05-24T20:08:59.658Z,100.00
2023-05-24T20:11:26.778Z,100.00
2023-05-24T20:13:55.792Z,100.00
2023-05-24T20:16:23.330Z,100.00
2023-05-24T20:18:50.519Z,100.00
2023-05-24T20:21:18.129Z,100.00
2023-05-24T20:23:45.356Z,100.00
2023-05-24T20:26:12.445Z,100.00
2023-05-24T20:28:39.472Z,100.00
2023-05-24T20:31:06.578Z,100.00
2023-05-24T20:33:37.819Z,100.00
2023-05-24T20:36:05.478Z,100.00
2023-05-24T20:38:32.569Z,100.00
2023-05-24T20:40:59.978Z,100.00
2023-05-24T20:43:27.026Z,100.00
2023-05-24T20:45:54.200Z,100.00
2023-05-24T20:48:21.404Z,100.00
2023-05-24T20:50:48.634Z,100.00
2023-05-24T20:53:15.862Z,100.00
2023-05-24T20:55:43.268Z,100.00
2023-05-24T20:58:14.904Z,100.00
2023-05-24T21:00:41.966Z,100.00
2023-05-24T21:03:09.367Z,100.00
2023-05-24T21:05:37.969Z,100.00
2023-05-24T21:08:05.115Z,100.00
2023-05-24T21:10:33.002Z,100.00
2023-05-24T21:13:00.076Z,100.00
2023-05-24T21:15:27.186Z,100.00
2023-05-24T21:17:54.283Z,100.00
2023-05-24T21:20:21.551Z,100.00
2023-05-24T21:22:48.794Z,100.00
2023-05-24T21:25:16.029Z,100.00
2023-05-24T21:27:43.205Z,100.00
2023-05-24T21:30:10.766Z,100.00
2023-05-24T21:32:37.960Z,100.00
2023-05-24T21:35:05.630Z,100.00
2023-05-24T21:37:32.660Z,100.00
2023-05-24T21:39:59.681Z,100.00
2023-05-24T21:42:26.730Z,100.00
2023-05-24T21:44:53.822Z,100.00
2023-05-24T21:47:20.872Z,100.00
2023-05-24T21:49:47.929Z,100.00
2023-05-24T21:52:15.011Z,100.00
2023-05-24T21:54:42.064Z,100.00
2023-05-24T21:57:09.122Z,100.00
2023-05-24T21:59:36.141Z,100.00
2023-05-24T22:02:03.517Z,100.00
2023-05-24T22:04:30.821Z,100.00
2023-05-24T22:07:16.129Z,100.00
2023-05-24T22:09:43.195Z,100.00
2023-05-24T22:12:10.237Z,100.00
2023-05-24T22:14:37.304Z,100.00
2023-05-24T22:17:04.682Z,100.00
2023-05-24T22:19:39.498Z,100.00
2023-05-24T22:22:08.702Z,100.00
2023-05-24T22:24:36.144Z,100.00
2023-05-24T22:27:03.763Z,100.00
2023-05-24T22:29:30.848Z,100.00
2023-05-24T22:31:57.932Z,100.00
2023-05-24T22:34:28.846Z,100.00
2023-05-24T22:36:57.381Z,100.00
2023-05-24T22:39:25.048Z,100.00
2023-05-24T22:41:53.030Z,100.00
2023-05-24T22:44:20.319Z,100.00
2023-05-24T22:46:49.667Z,100.00
2023-05-24T22:49:19.453Z,100.00
2023-05-24T22:51:48.084Z,100.00
2023-05-24T22:54:15.641Z,100.00
2023-05-24T22:56:43.861Z,100.00
2023-05-24T22:59:11.310Z,100.00
2023-05-24T23:01:38.650Z,100.00
2023-05-24T23:04:19.670Z,100.00
2023-05-24T23:06:52.189Z,100.00
2023-05-24T23:09:28.807Z,100.00
2023-05-24T23:11:58.119Z,100.00
2023-05-24T23:14:25.223Z,100.00
2023-05-24T23:16:52.369Z,100.00
2023-05-24T23:19:19.478Z,100.00
2023-05-24T23:21:46.599Z,100.00
2023-05-24T23:24:16.019Z,100.00
2023-05-24T23:26:43.289Z,100.00
2023-05-24T23:29:10.479Z,100.00
2023-05-24T23:31:37.889Z,100.00
2023-05-24T23:34:05.517Z,100.00
2023-05-24T23:36:32.901Z,100.00
2023-05-24T23:39:00.203Z,100.00
2023-05-24T23:41:27.286Z,100.00
2023-05-24T23:43:54.373Z,100.00
2023-05-24T23:46:21.539Z,100.00
2023-05-24T23:48:48.652Z,100.00
2023-05-24T23:51:15.761Z,100.00
2023-05-24T23:53:42.815Z,100.00
2023-05-24T23:56:09.857Z,100.00
2023-05-24T23:58:37.506Z,100.00
